Bryce Canyon Airport
KBCE : now visible

Airfield :











YOU CAN JOIN US ON...

 
LOGIN :

Register | Disclaimer

   EN    FR    IT 

 









Legend :    VFR   Marginal VFR   IFR   Intensive IFR   Very Intensive IFR
Visi :
Ceiling :
>= 8 km
>= 3000ft
5 to 8 km
1000 to 3000 ft
1500m to 5 km
500 to 1000 ft
800 to 1500m
200 to 500 ft
< 800m
< 200 ft
Symbols :   Thunderstorms  Fog  Heavy snow  Heavy precipitations  Wind > 20 kt






- Airport Elevation : 7590 ft


KBCE - Bryce Canyon

CURRENT METAR :
  • 071953Z AUTO 17013G17KT 10SM CLR 11/M06 A3017 RMK AO2 SLP163 T01061061

EXPIRED METARs :
  • 071853Z AUTO 12007G20KT 090V150 10SM CLR 09/M06 A3018 RMK AO2 SLP169 T00891061
  • 071753Z AUTO 12011KT 10SM CLR 08/M07 A3019 RMK AO2 SLP175 I6000 T00831067 10083 21061 51003

TAF KBCE
Valid from the 07 at 18:00 until the 08 at 18:00 UTC


071731Z 0718/0818 15012G20KT P6SM FEW050
FM080000 18009KT P6SM FEW060
FM080300 23006KT P6SM SKC
FM081000 27007KT P6SM SCT200



MET'MAP, your aeronautical weather chart ! - Copyright ORBIFLY December 2007 - Disclaimer

ORBIFLY MET'MAP TEAM :

Programming & Development : Alexandra Zaïnal
Concept & original design : Baudouin d'Aumeries
Assistance for programming : Marc-Olivier Méhu
Technical & hardware support : Manuel Goepfert

Contact : metmap@orbifly.com




SOURCES & CREDITS :

   NOAA       Earth
Advisory